sensor_id;sensor_type;location;lat;lon;timestamp;pressure;altitude;pressure_sealevel;temperature;humidity
66945;BME280;53853;51.982;5.928;2023-09-19T00:01:14;100600.03;;;16.55;77.18
66945;BME280;53853;51.982;5.928;2023-09-19T00:03:46;100609.78;;;16.56;77.47
66945;BME280;53853;51.982;5.928;2023-09-19T00:06:16;100611.63;;;16.56;77.90
66945;BME280;53853;51.982;5.928;2023-09-19T00:08:47;100622.81;;;16.53;77.63
66945;BME280;53853;51.982;5.928;2023-09-19T00:11:19;100624.00;;;16.50;78.08
66945;BME280;53853;51.982;5.928;2023-09-19T00:13:53;100625.22;;;16.47;78.28
66945;BME280;53853;51.982;5.928;2023-09-19T00:16:26;100624.00;;;16.50;78.40
66945;BME280;53853;51.982;5.928;2023-09-19T00:18:56;100630.00;;;16.52;79.19
66945;BME280;53853;51.982;5.928;2023-09-19T00:21:32;100632.31;;;16.55;79.26
66945;BME280;53853;51.982;5.928;2023-09-19T00:24:02;100639.19;;;16.58;79.58
66945;BME280;53853;51.982;5.928;2023-09-19T00:26:35;100635.25;;;16.60;80.26
66945;BME280;53853;51.982;5.928;2023-09-19T00:29:05;100641.28;;;16.62;79.93
66945;BME280;53853;51.982;5.928;2023-09-19T00:31:35;100644.59;;;16.64;80.33
66945;BME280;53853;51.982;5.928;2023-09-19T00:34:06;100641.72;;;16.66;80.42
66945;BME280;53853;51.982;5.928;2023-09-19T00:36:37;100642.16;;;16.70;80.85
66945;BME280;53853;51.982;5.928;2023-09-19T00:39:10;100648.19;;;16.72;81.06
66945;BME280;53853;51.982;5.928;2023-09-19T00:41:42;100646.13;;;16.74;81.13
66945;BME280;53853;51.982;5.928;2023-09-19T00:44:12;100651.31;;;16.75;81.36
66945;BME280;53853;51.982;5.928;2023-09-19T00:46:42;100652.16;;;16.76;81.19
66945;BME280;53853;51.982;5.928;2023-09-19T00:49:16;100648.63;;;16.75;81.06
66945;BME280;53853;51.982;5.928;2023-09-19T00:51:49;100656.72;;;16.75;80.64
66945;BME280;53853;51.982;5.928;2023-09-19T00:54:19;100660.22;;;16.76;80.46
66945;BME280;53853;51.982;5.928;2023-09-19T00:56:52;100657.91;;;16.73;79.76
66945;BME280;53853;51.982;5.928;2023-09-19T00:59:21;100666.19;;;16.71;80.09
66945;BME280;53853;51.982;5.928;2023-09-19T01:01:52;100667.22;;;16.70;78.93
66945;BME280;53853;51.982;5.928;2023-09-19T01:04:23;100664.72;;;16.69;79.83
66945;BME280;53853;51.982;5.928;2023-09-19T01:06:54;100673.81;;;16.67;80.12
66945;BME280;53853;51.982;5.928;2023-09-19T01:09:24;100661.78;;;16.63;79.61
66945;BME280;53853;51.982;5.928;2023-09-19T01:12:02;100671.06;;;16.61;80.13
66945;BME280;53853;51.982;5.928;2023-09-19T01:14:42;100663.19;;;16.59;80.60
66945;BME280;53853;51.982;5.928;2023-09-19T01:17:23;100660.69;;;16.58;80.75
66945;BME280;53853;51.982;5.928;2023-09-19T01:20:17;100677.03;;;16.56;81.41
66945;BME280;53853;51.982;5.928;2023-09-19T01:23:00;100673.06;;;16.52;81.57
66945;BME280;53853;51.982;5.928;2023-09-19T01:29:13;100676.91;;;16.43;80.50
66945;BME280;53853;51.982;5.928;2023-09-19T01:31:52;100666.53;;;16.40;80.88
66945;BME280;53853;51.982;5.928;2023-09-19T01:34:23;100678.31;;;16.39;80.37
66945;BME280;53853;51.982;5.928;2023-09-19T01:36:53;100677.66;;;16.37;80.29
66945;BME280;53853;51.982;5.928;2023-09-19T01:39:25;100677.03;;;16.35;80.21
66945;BME280;53853;51.982;5.928;2023-09-19T01:42:01;100683.44;;;16.34;80.12
66945;BME280;53853;51.982;5.928;2023-09-19T01:44:44;100690.66;;;16.33;79.89
66945;BME280;53853;51.982;5.928;2023-09-19T01:47:23;100693.56;;;16.32;79.31
66945;BME280;53853;51.982;5.928;2023-09-19T01:52:48;100695.28;;;16.39;79.37
66945;BME280;53853;51.982;5.928;2023-09-19T01:55:20;100693.41;;;16.40;79.22
66945;BME280;53853;51.982;5.928;2023-09-19T01:57:58;100699.66;;;16.40;77.54
66945;BME280;53853;51.982;5.928;2023-09-19T02:00:33;100687.22;;;16.39;77.35
66945;BME280;53853;51.982;5.928;2023-09-19T02:03:10;100692.41;;;16.41;77.76
66945;BME280;53853;51.982;5.928;2023-09-19T02:05:40;100699.00;;;16.38;76.71
66945;BME280;53853;51.982;5.928;2023-09-19T02:08:10;100702.09;;;16.35;77.68
66945;BME280;53853;51.982;5.928;2023-09-19T02:10:40;100700.22;;;16.36;77.36
66945;BME280;53853;51.982;5.928;2023-09-19T02:13:16;100700.41;;;16.34;75.80
66945;BME280;53853;51.982;5.928;2023-09-19T02:15:47;100703.66;;;16.29;75.77
66945;BME280;53853;51.982;5.928;2023-09-19T02:18:19;100701.56;;;16.25;76.56
66945;BME280;53853;51.982;5.928;2023-09-19T02:20:49;100707.13;;;16.23;76.86
66945;BME280;53853;51.982;5.928;2023-09-19T02:23:20;100703.13;;;16.19;77.07
66945;BME280;53853;51.982;5.928;2023-09-19T02:25:53;100709.94;;;16.15;75.56
66945;BME280;53853;51.982;5.928;2023-09-19T02:28:25;100706.13;;;16.09;74.22
66945;BME280;53853;51.982;5.928;2023-09-19T02:30:57;100706.69;;;16.05;75.70
66945;BME280;53853;51.982;5.928;2023-09-19T02:33:29;100700.06;;;16.01;74.35
66945;BME280;53853;51.982;5.928;2023-09-19T02:36:00;100706.00;;;15.96;75.61
66945;BME280;53853;51.982;5.928;2023-09-19T02:38:30;100707.19;;;15.93;76.31
66945;BME280;53853;51.982;5.928;2023-09-19T02:41:00;100709.44;;;15.90;75.98
66945;BME280;53853;51.982;5.928;2023-09-19T02:46:13;100718.88;;;15.86;75.26
66945;BME280;53853;51.982;5.928;2023-09-19T02:48:46;100713.88;;;15.83;75.90
66945;BME280;53853;51.982;5.928;2023-09-19T02:51:17;100715.09;;;15.80;76.36
66945;BME280;53853;51.982;5.928;2023-09-19T02:53:47;100714.47;;;15.78;75.36
66945;BME280;53853;51.982;5.928;2023-09-19T02:56:19;100727.38;;;15.74;75.25
66945;BME280;53853;51.982;5.928;2023-09-19T02:58:49;100720.38;;;15.73;75.10
66945;BME280;53853;51.982;5.928;2023-09-19T03:01:19;100711.81;;;15.70;75.63
66945;BME280;53853;51.982;5.928;2023-09-19T03:03:52;100715.56;;;15.69;75.90
66945;BME280;53853;51.982;5.928;2023-09-19T03:06:22;100723.31;;;15.64;75.10
66945;BME280;53853;51.982;5.928;2023-09-19T03:08:52;100727.84;;;15.63;75.36
66945;BME280;53853;51.982;5.928;2023-09-19T03:11:23;100725.53;;;15.60;74.43
66945;BME280;53853;51.982;5.928;2023-09-19T03:13:57;100722.41;;;15.56;74.14
66945;BME280;53853;51.982;5.928;2023-09-19T03:16:27;100730.00;;;15.53;75.18
66945;BME280;53853;51.982;5.928;2023-09-19T03:19:02;100722.97;;;15.52;75.31
66945;BME280;53853;51.982;5.928;2023-09-19T03:21:33;100720.44;;;15.50;75.21
66945;BME280;53853;51.982;5.928;2023-09-19T03:24:04;100728.88;;;15.47;74.32
66945;BME280;53853;51.982;5.928;2023-09-19T03:26:34;100728.59;;;15.42;73.13
66945;BME280;53853;51.982;5.928;2023-09-19T03:29:05;100723.59;;;15.39;72.63
66945;BME280;53853;51.982;5.928;2023-09-19T03:31:37;100726.66;;;15.36;74.04
66945;BME280;53853;51.982;5.928;2023-09-19T03:34:11;100723.34;;;15.34;74.55
66945;BME280;53853;51.982;5.928;2023-09-19T03:36:41;100721.00;;;15.31;74.57
66945;BME280;53853;51.982;5.928;2023-09-19T03:39:11;100720.16;;;15.30;75.24
66945;BME280;53853;51.982;5.928;2023-09-19T03:41:42;100713.50;;;15.26;73.98
66945;BME280;53853;51.982;5.928;2023-09-19T03:44:12;100723.38;;;15.26;74.21
66945;BME280;53853;51.982;5.928;2023-09-19T03:46:42;100725.44;;;15.24;72.99
66945;BME280;53853;51.982;5.928;2023-09-19T03:49:14;100730.16;;;15.21;73.24
66945;BME280;53853;51.982;5.928;2023-09-19T03:51:45;100725.78;;;15.20;73.75
66945;BME280;53853;51.982;5.928;2023-09-19T03:54:15;100728.47;;;15.20;74.75
66945;BME280;53853;51.982;5.928;2023-09-19T03:56:46;100721.66;;;15.18;73.72
66945;BME280;53853;51.982;5.928;2023-09-19T03:59:17;100717.66;;;15.14;72.46
66945;BME280;53853;51.982;5.928;2023-09-19T04:01:47;100718.66;;;15.13;73.47
66945;BME280;53853;51.982;5.928;2023-09-19T04:04:19;100718.84;;;15.11;74.55
66945;BME280;53853;51.982;5.928;2023-09-19T04:06:51;100712.00;;;15.09;73.59
66945;BME280;53853;51.982;5.928;2023-09-19T04:09:21;100714.00;;;15.07;73.66
66945;BME280;53853;51.982;5.928;2023-09-19T04:11:52;100715.88;;;15.06;72.76
66945;BME280;53853;51.982;5.928;2023-09-19T04:14:22;100723.91;;;15.06;71.54
66945;BME280;53853;51.982;5.928;2023-09-19T04:16:52;100729.84;;;15.01;71.88
66945;BME280;53853;51.982;5.928;2023-09-19T04:19:24;100730.00;;;15.00;72.27
66945;BME280;53853;51.982;5.928;2023-09-19T04:21:55;100733.72;;;14.99;72.04
66945;BME280;53853;51.982;5.928;2023-09-19T04:24:25;100740.75;;;15.00;71.01
66945;BME280;53853;51.982;5.928;2023-09-19T04:26:55;100741.59;;;15.00;70.91
66945;BME280;53853;51.982;5.928;2023-09-19T04:29:26;100761.41;;;14.99;72.08
66945;BME280;53853;51.982;5.928;2023-09-19T04:31:56;100770.09;;;15.01;70.67
66945;BME280;53853;51.982;5.928;2023-09-19T04:34:29;100779.00;;;15.02;71.96
66945;BME280;53853;51.982;5.928;2023-09-19T04:36:59;100782.50;;;15.02;71.79
66945;BME280;53853;51.982;5.928;2023-09-19T04:39:30;100776.97;;;15.04;71.64
66945;BME280;53853;51.982;5.928;2023-09-19T04:42:01;100791.56;;;15.01;71.78
66945;BME280;53853;51.982;5.928;2023-09-19T04:44:31;100779.00;;;15.02;71.51
66945;BME280;53853;51.982;5.928;2023-09-19T04:47:00;100787.06;;;15.02;71.61
66945;BME280;53853;51.982;5.928;2023-09-19T04:49:33;100790.56;;;15.02;70.69
66945;BME280;53853;51.982;5.928;2023-09-19T04:52:04;100792.41;;;15.02;70.10
66945;BME280;53853;51.982;5.928;2023-09-19T04:54:34;100795.28;;;15.00;70.74
66945;BME280;53853;51.982;5.928;2023-09-19T04:57:04;100794.59;;;14.98;70.22
66945;BME280;53853;51.982;5.928;2023-09-19T04:59:34;100796.63;;;14.96;70.84
66945;BME280;53853;51.982;5.928;2023-09-19T05:02:05;100802.84;;;14.97;71.59
66945;BME280;53853;51.982;5.928;2023-09-19T05:04:37;100808.19;;;14.97;70.43
66945;BME280;53853;51.982;5.928;2023-09-19T05:07:07;100807.56;;;14.95;70.51
66945;BME280;53853;51.982;5.928;2023-09-19T05:09:38;100804.69;;;14.96;71.87
66945;BME280;53853;51.982;5.928;2023-09-19T05:12:09;100798.31;;;14.97;72.28
66945;BME280;53853;51.982;5.928;2023-09-19T05:14:39;100793.78;;;14.98;72.05
66945;BME280;53853;51.982;5.928;2023-09-19T05:17:10;100791.75;;;15.00;70.93
66945;BME280;53853;51.982;5.928;2023-09-19T05:19:42;100791.09;;;14.98;71.43
66945;BME280;53853;51.982;5.928;2023-09-19T05:22:13;100791.91;;;14.98;71.82
66945;BME280;53853;51.982;5.928;2023-09-19T05:24:42;100798.13;;;14.99;71.61
66945;BME280;53853;51.982;5.928;2023-09-19T05:27:14;100798.97;;;14.99;71.28
66945;BME280;53853;51.982;5.928;2023-09-19T05:29:44;100805.16;;;15.00;71.63
66945;BME280;53853;51.982;5.928;2023-09-19T05:32:14;100797.78;;;15.02;71.76
66945;BME280;53853;51.982;5.928;2023-09-19T05:34:49;100801.28;;;15.02;72.20
66945;BME280;53853;51.982;5.928;2023-09-19T05:37:20;100804.44;;;15.06;71.91
66945;BME280;53853;51.982;5.928;2023-09-19T05:39:50;100792.69;;;15.07;72.27
66945;BME280;53853;51.982;5.928;2023-09-19T05:42:20;100804.91;;;15.10;72.69
66945;BME280;53853;51.982;5.928;2023-09-19T05:44:50;100801.22;;;15.11;72.31
66945;BME280;53853;51.982;5.928;2023-09-19T05:47:20;100803.53;;;15.14;71.66
66945;BME280;53853;51.982;5.928;2023-09-19T05:49:54;100798.34;;;15.12;71.45
66945;BME280;53853;51.982;5.928;2023-09-19T05:52:24;100809.56;;;15.16;71.83
66945;BME280;53853;51.982;5.928;2023-09-19T05:54:54;100803.19;;;15.17;72.52
66945;BME280;53853;51.982;5.928;2023-09-19T05:57:24;100793.94;;;15.19;71.84
66945;BME280;53853;51.982;5.928;2023-09-19T06:00:00;100787.53;;;15.20;71.99
66945;BME280;53853;51.982;5.928;2023-09-19T06:02:39;100799.97;;;15.21;72.81
66945;BME280;53853;51.982;5.928;2023-09-19T06:05:14;100799.78;;;15.23;73.26
66945;BME280;53853;51.982;5.928;2023-09-19T06:07:44;100799.41;;;15.26;73.41
66945;BME280;53853;51.982;5.928;2023-09-19T06:10:14;100811.44;;;15.30;73.75
66945;BME280;53853;51.982;5.928;2023-09-19T06:12:44;100812.75;;;15.34;74.31
66945;BME280;53853;51.982;5.928;2023-09-19T06:15:15;100819.63;;;15.37;73.84
66945;BME280;53853;51.982;5.928;2023-09-19T06:17:47;100810.34;;;15.39;73.00
66945;BME280;53853;51.982;5.928;2023-09-19T06:20:20;100811.03;;;15.42;73.41
66945;BME280;53853;51.982;5.928;2023-09-19T06:22:51;100814.53;;;15.42;73.74
66945;BME280;53853;51.982;5.928;2023-09-19T06:25:21;100811.50;;;15.45;72.89
66945;BME280;53853;51.982;5.928;2023-09-19T06:27:52;100817.50;;;15.47;73.08
66945;BME280;53853;51.982;5.928;2023-09-19T06:30:24;100811.78;;;15.50;73.81
66945;BME280;53853;51.982;5.928;2023-09-19T06:32:57;100818.63;;;15.53;74.48
66945;BME280;53853;51.982;5.928;2023-09-19T06:35:32;100823.66;;;15.56;73.99
66945;BME280;53853;51.982;5.928;2023-09-19T06:38:06;100825.13;;;15.58;74.34
66945;BME280;53853;51.982;5.928;2023-09-19T06:40:38;100833.44;;;15.64;74.93
66945;BME280;53853;51.982;5.928;2023-09-19T06:43:10;100839.31;;;15.67;74.34
66945;BME280;53853;51.982;5.928;2023-09-19T06:46:01;100837.72;;;15.73;73.87
66945;BME280;53853;51.982;5.928;2023-09-19T06:48:31;100829.31;;;15.76;74.59
66945;BME280;53853;51.982;5.928;2023-09-19T06:51:04;100834.34;;;15.79;74.03
66945;BME280;53853;51.982;5.928;2023-09-19T06:53:34;100830.28;;;15.83;73.12
66945;BME280;53853;51.982;5.928;2023-09-19T06:56:04;100834.44;;;15.86;73.52
66945;BME280;53853;51.982;5.928;2023-09-19T06:58:34;100834.91;;;15.89;74.16
66945;BME280;53853;51.982;5.928;2023-09-19T07:01:05;100827.75;;;15.97;75.01
66945;BME280;53853;51.982;5.928;2023-09-19T07:03:35;100832.59;;;16.01;75.04
66945;BME280;53853;51.982;5.928;2023-09-19T07:06:08;100824.16;;;16.04;74.84
66945;BME280;53853;51.982;5.928;2023-09-19T07:08:38;100829.97;;;16.08;74.38
66945;BME280;53853;51.982;5.928;2023-09-19T07:11:08;100827.59;;;16.13;74.77
66945;BME280;53853;51.982;5.928;2023-09-19T07:13:39;100827.22;;;16.16;74.96
66945;BME280;53853;51.982;5.928;2023-09-19T07:16:09;100833.03;;;16.20;74.89
66945;BME280;53853;51.982;5.928;2023-09-19T07:18:54;100831.63;;;16.24;73.74
66945;BME280;53853;51.982;5.928;2023-09-19T07:21:28;100830.06;;;16.29;74.16
66945;BME280;53853;51.982;5.928;2023-09-19T07:24:00;100837.56;;;16.34;73.85
66945;BME280;53853;51.982;5.928;2023-09-19T07:26:30;100840.72;;;16.38;72.11
66945;BME280;53853;51.982;5.928;2023-09-19T07:29:01;100840.53;;;16.39;72.20
66945;BME280;53853;51.982;5.928;2023-09-19T07:31:31;100840.34;;;16.41;72.00
66945;BME280;53853;51.982;5.928;2023-09-19T07:34:01;100833.56;;;16.45;72.18
66945;BME280;53853;51.982;5.928;2023-09-19T07:36:35;100845.78;;;16.47;72.02
66945;BME280;53853;51.982;5.928;2023-09-19T07:39:05;100849.78;;;16.52;72.78
66945;BME280;53853;51.982;5.928;2023-09-19T07:41:35;100850.22;;;16.55;71.82
66945;BME280;53853;51.982;5.928;2023-09-19T07:44:05;100852.34;;;16.60;71.77
66945;BME280;53853;51.982;5.928;2023-09-19T07:46:36;100842.91;;;16.64;71.13
66945;BME280;53853;51.982;5.928;2023-09-19T07:49:06;100848.53;;;16.69;72.86
66945;BME280;53853;51.982;5.928;2023-09-19T07:51:40;100838.84;;;16.75;73.10
66945;BME280;53853;51.982;5.928;2023-09-19T07:54:13;100854.44;;;16.79;72.62
66945;BME280;53853;51.982;5.928;2023-09-19T07:56:43;100871.44;;;16.80;72.30
66945;BME280;53853;51.982;5.928;2023-09-19T07:59:13;100857.41;;;16.84;70.97
66945;BME280;53853;51.982;5.928;2023-09-19T08:01:44;100861.19;;;16.90;70.77
66945;BME280;53853;51.982;5.928;2023-09-19T08:04:14;100850.25;;;16.92;71.28
66945;BME280;53853;51.982;5.928;2023-09-19T08:06:48;100857.13;;;16.94;70.19
66945;BME280;53853;51.982;5.928;2023-09-19T08:09:19;100861.94;;;16.99;69.96
66945;BME280;53853;51.982;5.928;2023-09-19T08:11:50;100851.78;;;17.01;70.05
66945;BME280;53853;51.982;5.928;2023-09-19T08:14:20;100854.28;;;17.02;69.35
66945;BME280;53853;51.982;5.928;2023-09-19T08:16:51;100854.09;;;17.04;69.48
66945;BME280;53853;51.982;5.928;2023-09-19T08:19:25;100854.34;;;17.09;69.61
66945;BME280;53853;51.982;5.928;2023-09-19T08:22:00;100859.34;;;17.12;69.42
66945;BME280;53853;51.982;5.928;2023-09-19T08:24:30;100860.44;;;17.18;70.61
66945;BME280;53853;51.982;5.928;2023-09-19T08:27:01;100857.19;;;17.23;71.21
66945;BME280;53853;51.982;5.928;2023-09-19T08:29:32;100861.56;;;17.30;70.72
66945;BME280;53853;51.982;5.928;2023-09-19T08:32:03;100868.69;;;17.38;70.48
66945;BME280;53853;51.982;5.928;2023-09-19T08:34:33;100857.16;;;17.44;69.07
66945;BME280;53853;51.982;5.928;2023-09-19T08:37:08;100870.47;;;17.52;68.82
66945;BME280;53853;51.982;5.928;2023-09-19T08:39:38;100857.47;;;17.56;69.51
66945;BME280;53853;51.982;5.928;2023-09-19T08:42:07;100858.72;;;17.60;68.79
66945;BME280;53853;51.982;5.928;2023-09-19T08:44:38;100860.44;;;17.68;69.55
66945;BME280;53853;51.982;5.928;2023-09-19T08:47:14;100852.66;;;17.80;68.80
66945;BME280;53853;51.982;5.928;2023-09-19T08:49:57;100852.53;;;17.88;68.10
66945;BME280;53853;51.982;5.928;2023-09-19T08:52:36;100849.44;;;17.91;67.11
66945;BME280;53853;51.982;5.928;2023-09-19T08:55:12;100861.66;;;17.93;68.49
66945;BME280;53853;51.982;5.928;2023-09-19T08:57:49;100865.44;;;17.99;67.81
66945;BME280;53853;51.982;5.928;2023-09-19T09:00:22;100866.72;;;18.03;68.40
66945;BME280;53853;51.982;5.928;2023-09-19T09:02:55;100863.00;;;18.04;66.13
66945;BME280;53853;51.982;5.928;2023-09-19T09:05:26;100866.53;;;18.05;66.92
66945;BME280;53853;51.982;5.928;2023-09-19T09:08:00;100856.81;;;18.10;67.51
66945;BME280;53853;51.982;5.928;2023-09-19T09:10:30;100854.34;;;18.16;67.78
66945;BME280;53853;51.982;5.928;2023-09-19T09:13:00;100857.28;;;18.21;66.44
66945;BME280;53853;51.982;5.928;2023-09-19T09:15:36;100856.47;;;18.27;66.57
66945;BME280;53853;51.982;5.928;2023-09-19T09:18:07;100850.66;;;18.30;65.03
66945;BME280;53853;51.982;5.928;2023-09-19T09:20:37;100852.34;;;18.31;65.24
66945;BME280;53853;51.982;5.928;2023-09-19T09:23:10;100836.16;;;18.31;65.26
66945;BME280;53853;51.982;5.928;2023-09-19T09:25:51;100847.16;;;18.36;66.16
66945;BME280;53853;51.982;5.928;2023-09-19T09:28:30;100855.31;;;18.43;64.25
66945;BME280;53853;51.982;5.928;2023-09-19T09:31:00;100849.28;;;18.47;64.19
66945;BME280;53853;51.982;5.928;2023-09-19T09:33:35;100849.94;;;18.56;64.54
66945;BME280;53853;51.982;5.928;2023-09-19T09:36:06;100849.56;;;18.66;65.25
66945;BME280;53853;51.982;5.928;2023-09-19T09:38:48;100850.63;;;18.78;62.92
66945;BME280;53853;51.982;5.928;2023-09-19T09:41:36;100833.03;;;18.89;61.08
66945;BME280;53853;51.982;5.928;2023-09-19T09:44:13;100844.88;;;18.95;61.22
66945;BME280;53853;51.982;5.928;2023-09-19T09:46:45;100822.66;;;18.93;61.62
66945;BME280;53853;51.982;5.928;2023-09-19T09:49:48;100827.25;;;18.92;62.39
66945;BME280;53853;51.982;5.928;2023-09-19T09:52:45;100828.06;;;18.99;61.82
66945;BME280;53853;51.982;5.928;2023-09-19T09:55:18;100837.03;;;19.07;60.19
66945;BME280;53853;51.982;5.928;2023-09-19T09:57:53;100832.22;;;19.15;63.27
66945;BME280;53853;51.982;5.928;2023-09-19T10:00:32;100838.06;;;19.26;62.77
66945;BME280;53853;51.982;5.928;2023-09-19T10:03:20;100834.94;;;19.35;60.28
66945;BME280;53853;51.982;5.928;2023-09-19T10:05:54;100840.16;;;19.37;59.75
66945;BME280;53853;51.982;5.928;2023-09-19T10:08:24;100831.41;;;19.42;60.43
66945;BME280;53853;51.982;5.928;2023-09-19T10:11:00;100839.50;;;19.48;60.41
66945;BME280;53853;51.982;5.928;2023-09-19T10:13:39;100839.50;;;19.48;58.77
66945;BME280;53853;51.982;5.928;2023-09-19T10:16:10;100824.31;;;19.47;58.19
66945;BME280;53853;51.982;5.928;2023-09-19T10:18:43;100821.44;;;19.42;58.52
66945;BME280;53853;51.982;5.928;2023-09-19T10:21:13;100828.50;;;19.43;60.10
66945;BME280;53853;51.982;5.928;2023-09-19T10:23:49;100827.25;;;19.52;60.34
66945;BME280;53853;51.982;5.928;2023-09-19T10:26:27;100816.00;;;19.62;60.31
66945;BME280;53853;51.982;5.928;2023-09-19T10:28:58;100819.31;;;19.71;59.89
66945;BME280;53853;51.982;5.928;2023-09-19T10:31:32;100821.81;;;19.79;58.10
66945;BME280;53853;51.982;5.928;2023-09-19T10:34:08;100816.00;;;19.82;59.15
66945;BME280;53853;51.982;5.928;2023-09-19T10:36:40;100827.03;;;19.87;59.78
66945;BME280;53853;51.982;5.928;2023-09-19T10:39:15;100831.97;;;19.97;57.74
66945;BME280;53853;51.982;5.928;2023-09-19T10:41:55;100829.28;;;19.97;57.75
66945;BME280;53853;51.982;5.928;2023-09-19T10:44:27;100831.34;;;20.02;58.70
66945;BME280;53853;51.982;5.928;2023-09-19T10:46:58;100826.72;;;20.09;57.57
66945;BME280;53853;51.982;5.928;2023-09-19T10:49:29;100824.22;;;20.14;56.94
66945;BME280;53853;51.982;5.928;2023-09-19T10:52:01;100825.47;;;20.18;57.69
66945;BME280;53853;51.982;5.928;2023-09-19T10:54:35;100806.31;;;20.20;56.68
66945;BME280;53853;51.982;5.928;2023-09-19T10:57:10;100823.56;;;20.19;57.79
66945;BME280;53853;51.982;5.928;2023-09-19T11:00:01;100819.63;;;20.21;58.48
66945;BME280;53853;51.982;5.928;2023-09-19T11:03:18;100812.97;;;20.17;57.73
66945;BME280;53853;51.982;5.928;2023-09-19T11:06:05;100812.34;;;20.15;58.85
66945;BME280;53853;51.982;5.928;2023-09-19T11:09:06;100801.53;;;20.15;59.20
66945;BME280;53853;51.982;5.928;2023-09-19T11:11:49;100799.84;;;20.14;58.88
66945;BME280;53853;51.982;5.928;2023-09-19T11:14:38;100788.59;;;20.17;59.23
66945;BME280;53853;51.982;5.928;2023-09-19T11:17:30;100781.72;;;20.21;59.52
66945;BME280;53853;51.982;5.928;2023-09-19T11:20:24;100778.59;;;20.24;58.17
66945;BME280;53853;51.982;5.928;2023-09-19T11:23:18;100784.84;;;20.25;57.82
66945;BME280;53853;51.982;5.928;2023-09-19T11:25:50;100773.78;;;20.26;56.94
66945;BME280;53853;51.982;5.928;2023-09-19T11:28:34;100771.72;;;20.29;57.00
66945;BME280;53853;51.982;5.928;2023-09-19T11:34:42;100765.78;;;20.45;56.98
66945;BME280;53853;51.982;5.928;2023-09-19T11:40:12;100769.53;;;20.44;56.20
66945;BME280;53853;51.982;5.928;2023-09-19T11:42:47;100769.53;;;20.44;55.72
66945;BME280;53853;51.982;5.928;2023-09-19T11:48:24;100758.50;;;20.45;54.80
66945;BME280;53853;51.982;5.928;2023-09-19T11:50:59;100759.78;;;20.43;55.24
66945;BME280;53853;51.982;5.928;2023-09-19T11:53:34;100767.91;;;20.43;56.28
66945;BME280;53853;51.982;5.928;2023-09-19T11:56:07;100763.53;;;20.42;55.77
66945;BME280;53853;51.982;5.928;2023-09-19T11:58:38;100760.56;;;20.50;57.74
66945;BME280;53853;51.982;5.928;2023-09-19T12:01:12;100756.75;;;20.65;57.26
66945;BME280;53853;51.982;5.928;2023-09-19T12:03:47;100765.59;;;20.78;56.36
66945;BME280;53853;51.982;5.928;2023-09-19T12:06:25;100760.78;;;20.87;56.04
66945;BME280;53853;51.982;5.928;2023-09-19T12:08:56;100750.47;;;20.96;55.47
66945;BME280;53853;51.982;5.928;2023-09-19T12:11:29;100753.56;;;20.99;55.74
66945;BME280;53853;51.982;5.928;2023-09-19T12:14:02;100744.78;;;21.04;54.55
66945;BME280;53853;51.982;5.928;2023-09-19T12:16:32;100746.22;;;21.07;53.37
66945;BME280;53853;51.982;5.928;2023-09-19T12:19:19;100740.59;;;21.08;53.41
66945;BME280;53853;51.982;5.928;2023-09-19T12:22:00;100739.97;;;21.06;54.67
66945;BME280;53853;51.982;5.928;2023-09-19T12:24:32;100737.03;;;21.08;55.30
66945;BME280;53853;51.982;5.928;2023-09-19T12:27:06;100735.81;;;21.04;54.02
66945;BME280;53853;51.982;5.928;2023-09-19T12:29:45;100732.06;;;21.05;53.49
66945;BME280;53853;51.982;5.928;2023-09-19T12:32:15;100754.50;;;21.12;52.35
66945;BME280;53853;51.982;5.928;2023-09-19T12:34:52;100747.16;;;21.19;54.54
66945;BME280;53853;51.982;5.928;2023-09-19T12:37:25;100752.75;;;21.24;53.56
66945;BME280;53853;51.982;5.928;2023-09-19T12:40:05;100744.38;;;21.26;52.07
66945;BME280;53853;51.982;5.928;2023-09-19T12:42:44;100748.56;;;21.22;52.83
66945;BME280;53853;51.982;5.928;2023-09-19T12:45:15;100744.91;;;21.16;52.05
66945;BME280;53853;51.982;5.928;2023-09-19T12:51:03;100753.19;;;20.96;53.11
66945;BME280;53853;51.982;5.928;2023-09-19T12:53:38;100738.63;;;20.90;53.67
66945;BME280;53853;51.982;5.928;2023-09-19T12:56:10;100737.22;;;20.88;54.92
66945;BME280;53853;51.982;5.928;2023-09-19T12:58:51;100738.63;;;20.90;53.07
66945;BME280;53853;51.982;5.928;2023-09-19T13:01:22;100733.69;;;20.87;53.25
66945;BME280;53853;51.982;5.928;2023-09-19T13:04:15;100749.53;;;20.84;53.65
66945;BME280;53853;51.982;5.928;2023-09-19T13:06:53;100748.53;;;20.78;53.63
66945;BME280;53853;51.982;5.928;2023-09-19T13:09:30;100746.50;;;20.73;53.60
66945;BME280;53853;51.982;5.928;2023-09-19T13:12:01;100731.50;;;20.71;53.32
66945;BME280;53853;51.982;5.928;2023-09-19T13:14:32;100744.06;;;20.65;53.38
66945;BME280;53853;51.982;5.928;2023-09-19T13:17:06;100744.66;;;20.67;55.09
66945;BME280;53853;51.982;5.928;2023-09-19T13:19:43;100750.44;;;20.71;55.04
66945;BME280;53853;51.982;5.928;2023-09-19T13:22:37;100735.59;;;20.80;54.87
66945;BME280;53853;51.982;5.928;2023-09-19T13:25:15;100733.50;;;20.82;54.71
66945;BME280;53853;51.982;5.928;2023-09-19T13:27:46;100729.75;;;20.83;55.05
66945;BME280;53853;51.982;5.928;2023-09-19T13:30:18;100737.28;;;20.81;55.70
66945;BME280;53853;51.982;5.928;2023-09-19T13:32:49;100736.63;;;20.79;55.72
66945;BME280;53853;51.982;5.928;2023-09-19T13:35:19;100735.59;;;20.80;55.03
66945;BME280;53853;51.982;5.928;2023-09-19T13:37:49;100733.94;;;20.79;55.07
66945;BME280;53853;51.982;5.928;2023-09-19T13:40:22;100733.31;;;20.77;54.03
66945;BME280;53853;51.982;5.928;2023-09-19T13:43:01;100733.78;;;20.74;55.68
66945;BME280;53853;51.982;5.928;2023-09-19T13:45:33;100744.00;;;20.72;56.18